sensor_id;sensor_type;location;lat;lon;timestamp;pressure;altitude;pressure_sealevel;temperature;humidity
40920;BME280;26652;50.280;19.026;2022-08-19T00:02:00;97851.66;;;24.34;79.50
40920;BME280;26652;50.280;19.026;2022-08-19T00:04:30;97838.09;;;24.37;80.56
40920;BME280;26652;50.280;19.026;2022-08-19T00:06:50;97844.63;;;24.34;80.05
40920;BME280;26652;50.280;19.026;2022-08-19T00:09:15;97846.53;;;24.29;79.47
40920;BME280;26652;50.280;19.026;2022-08-19T00:11:36;97843.56;;;24.35;79.21
40920;BME280;26652;50.280;19.026;2022-08-19T00:14:03;97842.59;;;24.31;80.35
40920;BME280;26652;50.280;19.026;2022-08-19T00:16:29;97841.25;;;24.34;80.44
40920;BME280;26652;50.280;19.026;2022-08-19T00:18:53;97847.22;;;24.34;79.15
40920;BME280;26652;50.280;19.026;2022-08-19T00:21:06;97845.19;;;24.31;79.32
40920;BME280;26652;50.280;19.026;2022-08-19T00:23:49;97843.56;;;24.35;80.40
40920;BME280;26652;50.280;19.026;2022-08-19T00:26:11;97857.13;;;24.32;80.42
40920;BME280;26652;50.280;19.026;2022-08-19T00:28:45;97855.59;;;24.31;79.72
40920;BME280;26652;50.280;19.026;2022-08-19T00:31:16;97852.22;;;24.07;80.34
40920;BME280;26652;50.280;19.026;2022-08-19T00:33:27;97842.53;;;24.12;80.61
40920;BME280;26652;50.280;19.026;2022-08-19T00:35:45;97843.59;;;24.11;80.35
40920;BME280;26652;50.280;19.026;2022-08-19T00:38:21;97833.91;;;24.17;80.36
40920;BME280;26652;50.280;19.026;2022-08-19T00:40:39;97831.47;;;24.26;80.15
40920;BME280;26652;50.280;19.026;2022-08-19T00:42:51;97829.97;;;24.20;80.56
40920;BME280;26652;50.280;19.026;2022-08-19T00:45:24;97823.22;;;24.19;80.34
40920;BME280;26652;50.280;19.026;2022-08-19T00:47:36;97827.56;;;24.23;80.33
40920;BME280;26652;50.280;19.026;2022-08-19T00:49:57;97824.25;;;24.18;80.77
40920;BME280;26652;50.280;19.026;2022-08-19T00:52:32;97821.56;;;24.04;81.19
40920;BME280;26652;50.280;19.026;2022-08-19T00:55:07;97830.72;;;24.01;81.76
40920;BME280;26652;50.280;19.026;2022-08-19T00:57:26;97823.34;;;24.08;81.60
40920;BME280;26652;50.280;19.026;2022-08-19T00:59:38;97828.13;;;24.01;82.17
40920;BME280;26652;50.280;19.026;2022-08-19T01:02:03;97820.69;;;24.13;81.09
40920;BME280;26652;50.280;19.026;2022-08-19T01:04:23;97814.47;;;24.09;81.48
40920;BME280;26652;50.280;19.026;2022-08-19T01:06:58;97812.59;;;24.15;81.81
40920;BME280;26652;50.280;19.026;2022-08-19T01:09:05;97815.41;;;24.19;81.40
40920;BME280;26652;50.280;19.026;2022-08-19T01:11:20;97816.75;;;24.16;81.69
40920;BME280;26652;50.280;19.026;2022-08-19T01:13:33;97813.44;;;24.10;82.23
40920;BME280;26652;50.280;19.026;2022-08-19T01:15:59;97820.41;;;24.15;81.82
40920;BME280;26652;50.280;19.026;2022-08-19T01:18:12;97809.84;;;24.06;82.60
40920;BME280;26652;50.280;19.026;2022-08-19T01:20:24;97817.44;;;23.84;83.50
40920;BME280;26652;50.280;19.026;2022-08-19T01:22:39;97815.03;;;23.88;83.71
40920;BME280;26652;50.280;19.026;2022-08-19T01:24:48;97801.00;;;23.89;83.58
40920;BME280;26652;50.280;19.026;2022-08-19T01:26:56;97793.38;;;23.92;83.53
40920;BME280;26652;50.280;19.026;2022-08-19T01:29:07;97797.34;;;23.90;83.83
40920;BME280;26652;50.280;19.026;2022-08-19T01:31:20;97805.63;;;23.92;83.45
40920;BME280;26652;50.280;19.026;2022-08-19T01:33:39;97802.59;;;23.85;84.55
40920;BME280;26652;50.280;19.026;2022-08-19T01:35:48;97799.69;;;23.67;85.39
40920;BME280;26652;50.280;19.026;2022-08-19T01:38:00;97801.47;;;23.72;84.77
40920;BME280;26652;50.280;19.026;2022-08-19T01:40:14;97812.34;;;23.74;84.93
40920;BME280;26652;50.280;19.026;2022-08-19T01:42:19;97803.63;;;23.65;84.73
40920;BME280;26652;50.280;19.026;2022-08-19T01:44:28;97805.09;;;23.71;84.59
40920;BME280;26652;50.280;19.026;2022-08-19T01:46:42;97798.19;;;23.61;84.96
40920;BME280;26652;50.280;19.026;2022-08-19T01:48:48;97805.16;;;23.66;85.33
40920;BME280;26652;50.280;19.026;2022-08-19T01:50:56;97804.50;;;23.55;86.10
40920;BME280;26652;50.280;19.026;2022-08-19T01:53:11;97801.69;;;23.46;86.85
40920;BME280;26652;50.280;19.026;2022-08-19T01:55:20;97800.88;;;23.51;86.55
40920;BME280;26652;50.280;19.026;2022-08-19T01:57:27;97798.84;;;23.48;88.45
40920;BME280;26652;50.280;19.026;2022-08-19T01:59:41;97804.78;;;23.54;86.89
40920;BME280;26652;50.280;19.026;2022-08-19T02:01:52;97797.47;;;23.56;86.53
40920;BME280;26652;50.280;19.026;2022-08-19T02:04:08;97793.56;;;23.58;85.85
40920;BME280;26652;50.280;19.026;2022-08-19T02:06:18;97792.28;;;23.56;85.96
40920;BME280;26652;50.280;19.026;2022-08-19T02:08:29;97794.09;;;23.55;86.33
40920;BME280;26652;50.280;19.026;2022-08-19T02:10:41;97786.41;;;23.45;86.56
40920;BME280;26652;50.280;19.026;2022-08-19T02:13:01;97790.25;;;23.47;86.41
40920;BME280;26652;50.280;19.026;2022-08-19T02:15:23;97780.03;;;23.32;87.51
40920;BME280;26652;50.280;19.026;2022-08-19T02:17:56;97793.50;;;23.34;87.61
40920;BME280;26652;50.280;19.026;2022-08-19T02:20:18;97787.00;;;23.37;87.10
40920;BME280;26652;50.280;19.026;2022-08-19T02:22:47;97789.41;;;23.28;88.42
40920;BME280;26652;50.280;19.026;2022-08-19T02:25:19;97787.31;;;23.30;87.29
40920;BME280;26652;50.280;19.026;2022-08-19T02:27:39;97786.88;;;23.23;87.95
40920;BME280;26652;50.280;19.026;2022-08-19T02:29:51;97786.47;;;23.11;90.40
40920;BME280;26652;50.280;19.026;2022-08-19T02:32:17;97783.59;;;23.12;89.61
40920;BME280;26652;50.280;19.026;2022-08-19T02:34:47;97789.03;;;23.16;88.71
40920;BME280;26652;50.280;19.026;2022-08-19T02:37:00;97792.88;;;23.19;88.58
40920;BME280;26652;50.280;19.026;2022-08-19T02:39:13;97784.06;;;23.20;88.81
40920;BME280;26652;50.280;19.026;2022-08-19T02:41:48;97779.94;;;23.13;88.43
40920;BME280;26652;50.280;19.026;2022-08-19T02:44:07;97785.38;;;23.17;89.06
40920;BME280;26652;50.280;19.026;2022-08-19T02:46:28;97783.81;;;23.16;89.06
40920;BME280;26652;50.280;19.026;2022-08-19T02:49:00;97788.53;;;23.14;89.42
40920;BME280;26652;50.280;19.026;2022-08-19T02:51:24;97791.13;;;23.14;89.81
40920;BME280;26652;50.280;19.026;2022-08-19T02:53:33;97790.13;;;23.10;88.90
40920;BME280;26652;50.280;19.026;2022-08-19T02:56:07;97785.69;;;23.10;88.74
40920;BME280;26652;50.280;19.026;2022-08-19T02:58:39;97789.06;;;23.11;89.15
40920;BME280;26652;50.280;19.026;2022-08-19T03:00:54;97774.50;;;23.15;88.76
40920;BME280;26652;50.280;19.026;2022-08-19T03:03:04;97776.09;;;23.11;89.08
40920;BME280;26652;50.280;19.026;2022-08-19T03:05:31;97767.78;;;23.09;88.53
40920;BME280;26652;50.280;19.026;2022-08-19T03:07:53;97777.34;;;23.13;89.18
40920;BME280;26652;50.280;19.026;2022-08-19T03:10:19;97779.22;;;23.08;89.09
40920;BME280;26652;50.280;19.026;2022-08-19T03:12:49;97784.88;;;23.15;89.20
40920;BME280;26652;50.280;19.026;2022-08-19T03:15:07;97782.91;;;23.02;89.02
40920;BME280;26652;50.280;19.026;2022-08-19T03:17:17;97786.84;;;22.99;89.82
40920;BME280;26652;50.280;19.026;2022-08-19T03:19:44;97789.44;;;22.99;89.28
40920;BME280;26652;50.280;19.026;2022-08-19T03:22:22;97786.84;;;22.99;89.10
40920;BME280;26652;50.280;19.026;2022-08-19T03:24:34;97783.69;;;23.02;89.27
40920;BME280;26652;50.280;19.026;2022-08-19T03:26:49;97781.88;;;23.03;89.03
40920;BME280;26652;50.280;19.026;2022-08-19T03:29:11;97789.06;;;23.11;88.79
40920;BME280;26652;50.280;19.026;2022-08-19T03:31:42;97783.87;;;23.11;88.84
40920;BME280;26652;50.280;19.026;2022-08-19T03:34:16;97763.09;;;22.87;88.71
40920;BME280;26652;50.280;19.026;2022-08-19T03:36:26;97778.81;;;22.96;88.84
40920;BME280;26652;50.280;19.026;2022-08-19T03:38:50;97772.25;;;23.03;88.10
40920;BME280;26652;50.280;19.026;2022-08-19T03:41:14;97778.78;;;23.01;88.61
40920;BME280;26652;50.280;19.026;2022-08-19T03:43:38;97781.38;;;23.01;88.89
40920;BME280;26652;50.280;19.026;2022-08-19T03:46:06;97786.88;;;22.94;88.73
40920;BME280;26652;50.280;19.026;2022-08-19T03:48:40;97795.56;;;22.85;89.23
40920;BME280;26652;50.280;19.026;2022-08-19T03:50:49;97791.78;;;22.67;90.30
40920;BME280;26652;50.280;19.026;2022-08-19T03:52:58;97795.91;;;22.68;90.45
40920;BME280;26652;50.280;19.026;2022-08-19T03:55:21;97805.78;;;22.66;90.82
40920;BME280;26652;50.280;19.026;2022-08-19T03:58:03;97788.41;;;22.66;90.63
40920;BME280;26652;50.280;19.026;2022-08-19T04:00:15;97800.00;;;22.79;90.21
40920;BME280;26652;50.280;19.026;2022-08-19T04:02:25;97800.78;;;22.79;89.99
40920;BME280;26652;50.280;19.026;2022-08-19T04:04:48;97796.63;;;22.78;89.85
40920;BME280;26652;50.280;19.026;2022-08-19T04:07:26;97793.28;;;22.73;89.69
40920;BME280;26652;50.280;19.026;2022-08-19T04:09:51;97799.13;;;22.55;90.61
40920;BME280;26652;50.280;19.026;2022-08-19T04:12:24;97806.94;;;22.49;91.31
40920;BME280;26652;50.280;19.026;2022-08-19T04:14:37;97806.13;;;22.54;91.15
40920;BME280;26652;50.280;19.026;2022-08-19T04:16:59;97811.13;;;22.45;91.38
40920;BME280;26652;50.280;19.026;2022-08-19T04:19:08;97812.41;;;22.48;91.35
40920;BME280;26652;50.280;19.026;2022-08-19T04:21:53;97812.09;;;22.55;91.19
40920;BME280;26652;50.280;19.026;2022-08-19T04:24:13;97810.97;;;22.66;90.40
40920;BME280;26652;50.280;19.026;2022-08-19T04:26:46;97815.88;;;22.72;89.70
40920;BME280;26652;50.280;19.026;2022-08-19T04:28:55;97826.69;;;22.85;89.32
40920;BME280;26652;50.280;19.026;2022-08-19T04:31:23;97831.34;;;22.88;88.43
40920;BME280;26652;50.280;19.026;2022-08-19T04:33:46;97834.38;;;22.95;88.44
40920;BME280;26652;50.280;19.026;2022-08-19T04:36:23;97839.94;;;23.12;87.75
40920;BME280;26652;50.280;19.026;2022-08-19T04:38:34;97842.47;;;23.22;87.22
40920;BME280;26652;50.280;19.026;2022-08-19T04:40:51;97845.84;;;23.23;85.92
40920;BME280;26652;50.280;19.026;2022-08-19T04:43:20;97850.72;;;23.29;86.21
40920;BME280;26652;50.280;19.026;2022-08-19T04:45:32;97843.09;;;23.38;86.18
40920;BME280;26652;50.280;19.026;2022-08-19T04:47:44;97851.28;;;23.50;85.45
40920;BME280;26652;50.280;19.026;2022-08-19T04:50:14;97850.22;;;23.56;85.17
40920;BME280;26652;50.280;19.026;2022-08-19T04:52:34;97848.34;;;23.62;85.38
40920;BME280;26652;50.280;19.026;2022-08-19T04:55:02;97846.97;;;23.69;84.70
40920;BME280;26652;50.280;19.026;2022-08-19T04:57:32;97849.00;;;23.72;84.20
40920;BME280;26652;50.280;19.026;2022-08-19T04:59:54;97850.13;;;23.66;83.18
40920;BME280;26652;50.280;19.026;2022-08-19T05:02:04;97850.56;;;23.73;84.10
40920;BME280;26652;50.280;19.026;2022-08-19T05:04:40;97850.22;;;23.80;83.38
40920;BME280;26652;50.280;19.026;2022-08-19T05:06:59;97843.91;;;23.86;82.10
40920;BME280;26652;50.280;19.026;2022-08-19T05:09:13;97843.87;;;23.91;81.51
40920;BME280;26652;50.280;19.026;2022-08-19T05:11:42;97842.38;;;24.04;81.84
40920;BME280;26652;50.280;19.026;2022-08-19T05:14:00;97846.63;;;24.19;82.07
40920;BME280;26652;50.280;19.026;2022-08-19T05:16:14;97844.91;;;24.33;80.15
40920;BME280;26652;50.280;19.026;2022-08-19T05:18:34;97845.53;;;24.43;79.63
40920;BME280;26652;50.280;19.026;2022-08-19T05:21:13;97855.88;;;24.49;79.16
40920;BME280;26652;50.280;19.026;2022-08-19T05:23:35;97847.16;;;24.39;78.69
40920;BME280;26652;50.280;19.026;2022-08-19T05:25:50;97846.34;;;24.20;79.83
40920;BME280;26652;50.280;19.026;2022-08-19T05:28:20;97853.00;;;24.31;79.73
40920;BME280;26652;50.280;19.026;2022-08-19T05:30:33;97859.59;;;24.42;78.66
40920;BME280;26652;50.280;19.026;2022-08-19T05:32:57;97861.50;;;24.56;78.92
40920;BME280;26652;50.280;19.026;2022-08-19T05:35:20;97864.16;;;24.69;79.13
40920;BME280;26652;50.280;19.026;2022-08-19T05:37:43;97859.75;;;24.70;78.69
40920;BME280;26652;50.280;19.026;2022-08-19T05:40:13;97868.38;;;24.84;78.81
40920;BME280;26652;50.280;19.026;2022-08-19T05:42:23;97862.59;;;24.87;78.03
40920;BME280;26652;50.280;19.026;2022-08-19T05:44:41;97863.97;;;24.66;76.73
40920;BME280;26652;50.280;19.026;2022-08-19T05:47:05;97864.81;;;24.61;77.24
40920;BME280;26652;50.280;19.026;2022-08-19T05:49:27;97875.56;;;24.73;77.49
40920;BME280;26652;50.280;19.026;2022-08-19T05:51:56;97874.66;;;24.83;76.70
40920;BME280;26652;50.280;19.026;2022-08-19T05:54:11;97869.66;;;24.87;76.32
40920;BME280;26652;50.280;19.026;2022-08-19T05:56:24;97871.34;;;24.77;76.31
40920;BME280;26652;50.280;19.026;2022-08-19T05:58:45;97866.22;;;24.72;76.70
40920;BME280;26652;50.280;19.026;2022-08-19T06:01:14;97873.47;;;24.75;76.22
40920;BME280;26652;50.280;19.026;2022-08-19T06:03:34;97863.25;;;24.79;76.00
40920;BME280;26652;50.280;19.026;2022-08-19T06:06:08;97861.63;;;24.83;75.41
40920;BME280;26652;50.280;19.026;2022-08-19T06:08:19;97867.47;;;24.94;75.90
40920;BME280;26652;50.280;19.026;2022-08-19T06:10:29;97866.81;;;25.02;75.12
40920;BME280;26652;50.280;19.026;2022-08-19T06:12:53;97871.12;;;25.25;75.72
40920;BME280;26652;50.280;19.026;2022-08-19T06:15:14;97873.19;;;25.42;73.92
40920;BME280;26652;50.280;19.026;2022-08-19T06:17:44;97878.59;;;25.46;73.76
40920;BME280;26652;50.280;19.026;2022-08-19T06:20:02;97874.72;;;25.43;73.54
40920;BME280;26652;50.280;19.026;2022-08-19T06:22:14;97886.22;;;25.42;73.29
40920;BME280;26652;50.280;19.026;2022-08-19T06:24:35;97883.31;;;25.43;73.08
40920;BME280;26652;50.280;19.026;2022-08-19T06:27:02;97888.72;;;25.47;72.48
40920;BME280;26652;50.280;19.026;2022-08-19T06:29:24;97881.87;;;25.51;72.45
40920;BME280;26652;50.280;19.026;2022-08-19T06:31:47;97886.53;;;25.54;72.26
40920;BME280;26652;50.280;19.026;2022-08-19T06:34:17;97882.41;;;25.67;72.39
40920;BME280;26652;50.280;19.026;2022-08-19T06:36:41;97889.94;;;25.68;72.15
40920;BME280;26652;50.280;19.026;2022-08-19T06:39:09;97885.50;;;25.69;71.21
40920;BME280;26652;50.280;19.026;2022-08-19T06:41:33;97884.53;;;25.79;71.43
40920;BME280;26652;50.280;19.026;2022-08-19T06:43:55;97896.63;;;25.88;71.33
40920;BME280;26652;50.280;19.026;2022-08-19T06:46:25;97899.59;;;25.82;71.50
40920;BME280;26652;50.280;19.026;2022-08-19T06:48:44;97903.47;;;25.98;71.94
40920;BME280;26652;50.280;19.026;2022-08-19T06:50:53;97893.44;;;25.91;70.51
40920;BME280;26652;50.280;19.026;2022-08-19T06:53:20;97910.88;;;26.04;70.45
40920;BME280;26652;50.280;19.026;2022-08-19T06:55:48;97907.78;;;26.16;70.67
40920;BME280;26652;50.280;19.026;2022-08-19T06:58:27;97912.03;;;26.26;70.58
40920;BME280;26652;50.280;19.026;2022-08-19T07:00:49;97919.87;;;26.26;69.95
40920;BME280;26652;50.280;19.026;2022-08-19T07:03:12;97913.28;;;26.28;69.78
40920;BME280;26652;50.280;19.026;2022-08-19T07:05:41;97925.47;;;26.19;68.42
40920;BME280;26652;50.280;19.026;2022-08-19T07:08:04;97923.94;;;26.18;69.27
40920;BME280;26652;50.280;19.026;2022-08-19T07:10:27;97918.91;;;26.22;69.38
40920;BME280;26652;50.280;19.026;2022-08-19T07:12:51;97920.28;;;26.33;69.18
40920;BME280;26652;50.280;19.026;2022-08-19T07:15:22;97927.81;;;26.34;68.26
40920;BME280;26652;50.280;19.026;2022-08-19T07:17:46;97926.44;;;26.37;68.83
40920;BME280;26652;50.280;19.026;2022-08-19T07:20:14;97940.44;;;26.55;69.21
40920;BME280;26652;50.280;19.026;2022-08-19T07:22:40;97947.47;;;26.68;67.88
40920;BME280;26652;50.280;19.026;2022-08-19T07:25:03;97960.22;;;26.83;68.35
40920;BME280;26652;50.280;19.026;2022-08-19T07:27:26;97959.53;;;26.78;66.42
40920;BME280;26652;50.280;19.026;2022-08-19T07:29:58;97956.97;;;26.64;66.78
40920;BME280;26652;50.280;19.026;2022-08-19T07:32:10;97958.13;;;26.58;67.68
40920;BME280;26652;50.280;19.026;2022-08-19T07:34:23;97954.94;;;26.61;67.82
40920;BME280;26652;50.280;19.026;2022-08-19T07:36:45;97951.66;;;26.55;68.08
40920;BME280;26652;50.280;19.026;2022-08-19T07:39:29;97959.75;;;26.67;67.85
40920;BME280;26652;50.280;19.026;2022-08-19T07:41:39;97957.22;;;26.76;68.17
40920;BME280;26652;50.280;19.026;2022-08-19T07:43:48;97969.31;;;26.86;67.74
40920;BME280;26652;50.280;19.026;2022-08-19T07:46:19;97962.91;;;26.92;67.36
40920;BME280;26652;50.280;19.026;2022-08-19T07:48:29;97965.03;;;27.03;68.44
40920;BME280;26652;50.280;19.026;2022-08-19T07:50:38;97968.03;;;27.19;67.69
40920;BME280;26652;50.280;19.026;2022-08-19T07:53:01;97961.78;;;27.29;66.84
40920;BME280;26652;50.280;19.026;2022-08-19T07:55:24;97974.91;;;27.37;66.65
40920;BME280;26652;50.280;19.026;2022-08-19T07:57:48;97971.41;;;27.42;66.64
40920;BME280;26652;50.280;19.026;2022-08-19T08:00:11;97975.88;;;27.42;66.07
40920;BME280;26652;50.280;19.026;2022-08-19T08:02:32;97963.09;;;27.40;64.93
40920;BME280;26652;50.280;19.026;2022-08-19T08:04:54;97971.53;;;27.37;64.62
40920;BME280;26652;50.280;19.026;2022-08-19T08:07:23;97968.97;;;27.46;64.97
40920;BME280;26652;50.280;19.026;2022-08-19T08:10:04;97973.19;;;27.55;64.50
40920;BME280;26652;50.280;19.026;2022-08-19T08:12:21;97983.91;;;27.67;64.08
40920;BME280;26652;50.280;19.026;2022-08-19T08:14:48;97983.91;;;27.67;62.65
40920;BME280;26652;50.280;19.026;2022-08-19T08:17:10;97980.38;;;27.72;61.78
40920;BME280;26652;50.280;19.026;2022-08-19T08:19:31;97982.09;;;27.77;61.29
40920;BME280;26652;50.280;19.026;2022-08-19T08:21:56;97983.00;;;27.72;62.44
40920;BME280;26652;50.280;19.026;2022-08-19T08:24:18;97983.59;;;27.69;62.13
40920;BME280;26652;50.280;19.026;2022-08-19T08:26:47;97986.38;;;27.73;62.96
40920;BME280;26652;50.280;19.026;2022-08-19T08:29:02;97987.19;;;27.82;63.36
40920;BME280;26652;50.280;19.026;2022-08-19T08:31:16;97982.91;;;27.86;62.81
40920;BME280;26652;50.280;19.026;2022-08-19T08:33:42;97979.88;;;27.92;62.62
40920;BME280;26652;50.280;19.026;2022-08-19T08:36:13;97973.47;;;28.07;61.65
40920;BME280;26652;50.280;19.026;2022-08-19T08:38:45;97971.00;;;28.19;62.24
40920;BME280;26652;50.280;19.026;2022-08-19T08:41:00;97974.22;;;28.16;61.63
40920;BME280;26652;50.280;19.026;2022-08-19T08:43:30;97973.75;;;28.14;61.99
40920;BME280;26652;50.280;19.026;2022-08-19T08:46:08;97969.16;;;28.20;62.58
40920;BME280;26652;50.280;19.026;2022-08-19T08:48:39;97974.16;;;28.30;62.32
40920;BME280;26652;50.280;19.026;2022-08-19T08:51:06;97967.22;;;28.34;62.39
40920;BME280;26652;50.280;19.026;2022-08-19T08:53:41;97975.88;;;28.43;61.32
40920;BME280;26652;50.280;19.026;2022-08-19T08:55:51;97971.09;;;28.45;62.31
40920;BME280;26652;50.280;19.026;2022-08-19T08:58:06;97966.37;;;28.64;61.78
40920;BME280;26652;50.280;19.026;2022-08-19T09:00:38;97958.06;;;28.71;62.55
40920;BME280;26652;50.280;19.026;2022-08-19T09:02:56;97958.81;;;28.72;62.11
40920;BME280;26652;50.280;19.026;2022-08-19T09:05:05;97948.66;;;28.70;61.82
40920;BME280;26652;50.280;19.026;2022-08-19T09:07:26;97945.72;;;28.80;62.00
40920;BME280;26652;50.280;19.026;2022-08-19T09:09:46;97943.59;;;28.82;62.72
40920;BME280;26652;50.280;19.026;2022-08-19T09:12:07;97944.97;;;28.88;61.73
40920;BME280;26652;50.280;19.026;2022-08-19T09:17:21;97957.16;;;28.93;61.71
40920;BME280;26652;50.280;19.026;2022-08-19T09:22:33;97961.62;;;29.01;62.63
40920;BME280;26652;50.280;19.026;2022-08-19T09:25:03;97955.78;;;29.04;61.34
40920;BME280;26652;50.280;19.026;2022-08-19T09:27:28;97958.41;;;29.04;59.74
40920;BME280;26652;50.280;19.026;2022-08-19T09:29:55;97964.09;;;29.06;60.45
40920;BME280;26652;50.280;19.026;2022-08-19T09:32:48;97960.22;;;29.12;60.83
40920;BME280;26652;50.280;19.026;2022-08-19T09:35:15;97951.59;;;29.12;60.54
40920;BME280;26652;50.280;19.026;2022-08-19T09:38:05;97964.34;;;29.30;57.80
40920;BME280;26652;50.280;19.026;2022-08-19T09:40:31;97968.06;;;29.47;58.17
40920;BME280;26652;50.280;19.026;2022-08-19T09:42:38;97963.72;;;29.51;58.08
40920;BME280;26652;50.280;19.026;2022-08-19T09:45:10;97963.44;;;29.44;55.19
40920;BME280;26652;50.280;19.026;2022-08-19T09:47:37;97964.34;;;29.56;57.26
40920;BME280;26652;50.280;19.026;2022-08-19T09:50:23;97965.53;;;29.68;56.28
40920;BME280;26652;50.280;19.026;2022-08-19T09:52:52;97965.50;;;29.76;55.22
40920;BME280;26652;50.280;19.026;2022-08-19T09:55:41;97961.75;;;29.94;56.16
40920;BME280;26652;50.280;19.026;2022-08-19T09:58:07;97953.59;;;29.87;53.76
40920;BME280;26652;50.280;19.026;2022-08-19T10:00:39;97965.13;;;30.04;54.07
40920;BME280;26652;50.280;19.026;2022-08-19T10:03:28;97967.63;;;30.21;54.34
40920;BME280;26652;50.280;19.026;2022-08-19T10:05:57;97966.63;;;30.34;55.99
40920;BME280;26652;50.280;19.026;2022-08-19T10:08:29;97959.06;;;30.33;55.19
40920;BME280;26652;50.280;19.026;2022-08-19T10:10:59;97965.22;;;30.37;51.88
40920;BME280;26652;50.280;19.026;2022-08-19T10:13:30;97954.09;;;30.40;52.76
40920;BME280;26652;50.280;19.026;2022-08-19T10:15:40;97962.28;;;30.38;51.22
40920;BME280;26652;50.280;19.026;2022-08-19T10:18:07;97966.59;;;30.43;51.35
40920;BME280;26652;50.280;19.026;2022-08-19T10:20:28;97970.84;;;30.56;51.46
40920;BME280;26652;50.280;19.026;2022-08-19T10:22:36;97968.44;;;30.72;50.81
40920;BME280;26652;50.280;19.026;2022-08-19T10:24:49;97968.31;;;30.89;49.96
40920;BME280;26652;50.280;19.026;2022-08-19T10:27:03;97968.50;;;31.05;51.47
40920;BME280;26652;50.280;19.026;2022-08-19T10:29:12;97967.41;;;31.06;51.15
40920;BME280;26652;50.280;19.026;2022-08-19T10:31:22;97965.34;;;31.11;49.96
40920;BME280;26652;50.280;19.026;2022-08-19T10:33:36;97968.38;;;31.34;49.53
40920;BME280;26652;50.280;19.026;2022-08-19T10:35:48;97962.38;;;31.46;50.97
40920;BME280;26652;50.280;19.026;2022-08-19T10:37:59;97968.53;;;31.50;50.27
40920;BME280;26652;50.280;19.026;2022-08-19T10:40:11;97957.66;;;31.51;50.97
40920;BME280;26652;50.280;19.026;2022-08-19T10:42:18;97961.72;;;31.49;49.97
40920;BME280;26652;50.280;19.026;2022-08-19T10:44:24;97955.12;;;31.43;49.10
40920;BME280;26652;50.280;19.026;2022-08-19T10:46:41;97949.19;;;31.34;49.10
40920;BME280;26652;50.280;19.026;2022-08-19T10:48:48;97953.34;;;31.35;49.42
40920;BME280;26652;50.280;19.026;2022-08-19T10:50:54;97956.34;;;31.45;49.04
40920;BME280;26652;50.280;19.026;2022-08-19T10:53:20;97939.12;;;31.48;48.44
40920;BME280;26652;50.280;19.026;2022-08-19T10:55:27;97940.94;;;31.68;48.69
40920;BME280;26652;50.280;19.026;2022-08-19T10:57:51;97923.81;;;31.62;50.04
40920;BME280;26652;50.280;19.026;2022-08-19T11:00:01;97920.66;;;31.69;48.54
40920;BME280;26652;50.280;19.026;2022-08-19T11:02:10;97931.41;;;31.76;49.22
40920;BME280;26652;50.280;19.026;2022-08-19T11:04:18;97942.16;;;31.83;48.16
40920;BME280;26652;50.280;19.026;2022-08-19T11:06:36;97924.25;;;31.64;48.41
40920;BME280;26652;50.280;19.026;2022-08-19T11:08:42;97920.00;;;31.72;49.07
40920;BME280;26652;50.280;19.026;2022-08-19T11:10:45;97919.25;;;31.83;48.78
40920;BME280;26652;50.280;19.026;2022-08-19T11:12:48;97923.62;;;31.79;49.32
40920;BME280;26652;50.280;19.026;2022-08-19T11:14:57;97916.06;;;31.78;49.20
40920;BME280;26652;50.280;19.026;2022-08-19T11:17:04;97920.22;;;31.79;48.92
40920;BME280;26652;50.280;19.026;2022-08-19T11:19:16;97920.44;;;31.74;49.24
40920;BME280;26652;50.280;19.026;2022-08-19T11:21:31;97923.62;;;31.79;50.04
40920;BME280;26652;50.280;19.026;2022-08-19T11:23:37;97932.41;;;31.96;50.44
40920;BME280;26652;50.280;19.026;2022-08-19T11:25:48;97929.00;;;32.07;46.16
40920;BME280;26652;50.280;19.026;2022-08-19T11:27:55;97924.06;;;32.18;47.70
40920;BME280;26652;50.280;19.026;2022-08-19T11:29:56;97923.72;;;32.19;47.51
40920;BME280;26652;50.280;19.026;2022-08-19T11:32:09;97928.34;;;32.23;46.54
40920;BME280;26652;50.280;19.026;2022-08-19T11:34:19;97921.22;;;32.11;46.62
40920;BME280;26652;50.280;19.026;2022-08-19T11:36:22;97920.56;;;32.02;46.09
40920;BME280;26652;50.280;19.026;2022-08-19T11:38:33;97923.50;;;32.12;47.05
40920;BME280;26652;50.280;19.026;2022-08-19T11:40:42;97926.38;;;32.07;46.59
40920;BME280;26652;50.280;19.026;2022-08-19T11:42:48;97927.00;;;32.16;47.61
40920;BME280;26652;50.280;19.026;2022-08-19T11:44:57;97923.09;;;32.23;47.66
40920;BME280;26652;50.280;19.026;2022-08-19T11:47:11;97931.72;;;32.35;46.20
40920;BME280;26652;50.280;19.026;2022-08-19T11:49:20;97925.22;;;32.45;45.58
40920;BME280;26652;50.280;19.026;2022-08-19T11:51:37;97933.50;;;32.71;44.82
40920;BME280;26652;50.280;19.026;2022-08-19T11:53:43;97926.00;;;32.73;44.13
40920;BME280;26652;50.280;19.026;2022-08-19T11:55:57;97932.19;;;32.77;43.65
40920;BME280;26652;50.280;19.026;2022-08-19T11:58:11;97932.12;;;32.90;44.05
40920;BME280;26652;50.280;19.026;2022-08-19T12:00:17;97934.78;;;32.90;43.27
40920;BME280;26652;50.280;19.026;2022-08-19T12:02:29;97931.88;;;32.95;43.55
40920;BME280;26652;50.280;19.026;2022-08-19T12:04:49;97924.47;;;32.85;44.49
40920;BME280;26652;50.280;19.026;2022-08-19T12:07:07;97930.16;;;32.87;44.19
40920;BME280;26652;50.280;19.026;2022-08-19T12:09:22;97920.28;;;32.83;42.52
40920;BME280;26652;50.280;19.026;2022-08-19T12:11:44;97926.78;;;32.74;43.33
40920;BME280;26652;50.280;19.026;2022-08-19T12:13:52;97919.56;;;32.59;44.88
40920;BME280;26652;50.280;19.026;2022-08-19T12:16:07;97922.19;;;32.71;44.34
40920;BME280;26652;50.280;19.026;2022-08-19T12:18:29;97924.59;;;32.76;45.13
40920;BME280;26652;50.280;19.026;2022-08-19T12:20:43;97922.66;;;32.61;44.00